sensor_id;sensor_type;location;lat;lon;timestamp;temperature;humidity
12568;DHT22;6349;50.904;6.136;2022-07-23T00:01:47;18.70;99.90
12568;DHT22;6349;50.904;6.136;2022-07-23T00:03:48;18.70;99.90
12568;DHT22;6349;50.904;6.136;2022-07-23T00:05:49;18.70;99.90
12568;DHT22;6349;50.904;6.136;2022-07-23T00:07:50;18.70;99.90
12568;DHT22;6349;50.904;6.136;2022-07-23T00:09:51;18.70;99.90
12568;DHT22;6349;50.904;6.136;2022-07-23T00:11:52;18.60;99.90
12568;DHT22;6349;50.904;6.136;2022-07-23T00:13:52;18.50;99.90
12568;DHT22;6349;50.904;6.136;2022-07-23T00:15:55;18.50;99.90
12568;DHT22;6349;50.904;6.136;2022-07-23T00:17:56;18.40;99.90
12568;DHT22;6349;50.904;6.136;2022-07-23T00:19:56;18.40;99.90
12568;DHT22;6349;50.904;6.136;2022-07-23T00:21:57;18.50;99.90
12568;DHT22;6349;50.904;6.136;2022-07-23T00:23:58;18.40;99.90
12568;DHT22;6349;50.904;6.136;2022-07-23T00:25:58;18.30;99.90
12568;DHT22;6349;50.904;6.136;2022-07-23T00:28:00;18.30;99.90
12568;DHT22;6349;50.904;6.136;2022-07-23T00:30:01;18.40;99.90
12568;DHT22;6349;50.904;6.136;2022-07-23T00:32:01;18.50;99.90
12568;DHT22;6349;50.904;6.136;2022-07-23T00:34:02;18.50;99.90
12568;DHT22;6349;50.904;6.136;2022-07-23T00:36:03;18.40;99.90
12568;DHT22;6349;50.904;6.136;2022-07-23T00:38:04;18.40;99.90
12568;DHT22;6349;50.904;6.136;2022-07-23T00:40:06;18.30;99.90
12568;DHT22;6349;50.904;6.136;2022-07-23T00:42:07;18.30;99.90
12568;DHT22;6349;50.904;6.136;2022-07-23T00:44:22;18.30;99.90
12568;DHT22;6349;50.904;6.136;2022-07-23T00:46:23;18.40;99.90
12568;DHT22;6349;50.904;6.136;2022-07-23T00:48:23;18.50;99.90
12568;DHT22;6349;50.904;6.136;2022-07-23T00:50:24;18.60;99.90
12568;DHT22;6349;50.904;6.136;2022-07-23T00:52:25;18.60;99.90
12568;DHT22;6349;50.904;6.136;2022-07-23T00:54:27;18.70;99.90
12568;DHT22;6349;50.904;6.136;2022-07-23T00:56:27;18.70;99.90
12568;DHT22;6349;50.904;6.136;2022-07-23T00:58:28;18.70;99.90
12568;DHT22;6349;50.904;6.136;2022-07-23T01:00:29;18.90;99.90
12568;DHT22;6349;50.904;6.136;2022-07-23T01:02:29;18.80;99.90
12568;DHT22;6349;50.904;6.136;2022-07-23T01:04:30;18.80;99.90
12568;DHT22;6349;50.904;6.136;2022-07-23T01:06:34;18.80;99.90
12568;DHT22;6349;50.904;6.136;2022-07-23T01:08:35;18.80;99.90
12568;DHT22;6349;50.904;6.136;2022-07-23T01:10:36;18.80;99.90
12568;DHT22;6349;50.904;6.136;2022-07-23T01:12:37;18.70;99.90
12568;DHT22;6349;50.904;6.136;2022-07-23T01:14:38;18.70;99.90
12568;DHT22;6349;50.904;6.136;2022-07-23T01:16:41;18.70;99.90
12568;DHT22;6349;50.904;6.136;2022-07-23T01:18:42;18.70;99.90
12568;DHT22;6349;50.904;6.136;2022-07-23T01:20:43;18.70;99.90
12568;DHT22;6349;50.904;6.136;2022-07-23T01:22:44;18.70;99.90
12568;DHT22;6349;50.904;6.136;2022-07-23T01:24:45;18.60;99.90
12568;DHT22;6349;50.904;6.136;2022-07-23T01:26:46;18.60;99.90
12568;DHT22;6349;50.904;6.136;2022-07-23T01:28:47;18.60;99.90
12568;DHT22;6349;50.904;6.136;2022-07-23T01:30:48;18.60;99.90
12568;DHT22;6349;50.904;6.136;2022-07-23T01:32:49;18.60;99.90
12568;DHT22;6349;50.904;6.136;2022-07-23T01:34:49;18.50;99.90
12568;DHT22;6349;50.904;6.136;2022-07-23T01:36:50;18.40;99.90
12568;DHT22;6349;50.904;6.136;2022-07-23T01:38:51;18.20;99.90
12568;DHT22;6349;50.904;6.136;2022-07-23T01:40:52;18.20;99.90
12568;DHT22;6349;50.904;6.136;2022-07-23T01:42:52;18.10;99.90
12568;DHT22;6349;50.904;6.136;2022-07-23T01:44:53;18.10;99.90
12568;DHT22;6349;50.904;6.136;2022-07-23T01:46:53;18.00;99.90
12568;DHT22;6349;50.904;6.136;2022-07-23T01:48:55;17.90;99.90
12568;DHT22;6349;50.904;6.136;2022-07-23T01:50:56;17.90;99.90
12568;DHT22;6349;50.904;6.136;2022-07-23T01:52:56;17.80;99.90
12568;DHT22;6349;50.904;6.136;2022-07-23T01:54:57;17.80;99.90
12568;DHT22;6349;50.904;6.136;2022-07-23T01:56:58;17.70;99.90
12568;DHT22;6349;50.904;6.136;2022-07-23T01:58:59;17.70;99.90
12568;DHT22;6349;50.904;6.136;2022-07-23T02:00:59;17.60;99.90
12568;DHT22;6349;50.904;6.136;2022-07-23T02:03:00;17.70;99.90
12568;DHT22;6349;50.904;6.136;2022-07-23T02:05:01;17.70;99.90
12568;DHT22;6349;50.904;6.136;2022-07-23T02:07:02;17.80;99.90
12568;DHT22;6349;50.904;6.136;2022-07-23T02:09:03;17.80;99.90
12568;DHT22;6349;50.904;6.136;2022-07-23T02:11:03;17.70;99.90
12568;DHT22;6349;50.904;6.136;2022-07-23T02:13:04;17.70;99.90
12568;DHT22;6349;50.904;6.136;2022-07-23T02:15:06;17.70;99.90
12568;DHT22;6349;50.904;6.136;2022-07-23T02:17:07;17.70;99.90
12568;DHT22;6349;50.904;6.136;2022-07-23T02:19:07;17.70;99.90
12568;DHT22;6349;50.904;6.136;2022-07-23T02:21:08;17.80;99.90
12568;DHT22;6349;50.904;6.136;2022-07-23T02:23:08;17.70;99.90
12568;DHT22;6349;50.904;6.136;2022-07-23T02:25:09;17.60;99.90
12568;DHT22;6349;50.904;6.136;2022-07-23T02:27:10;17.60;99.90
12568;DHT22;6349;50.904;6.136;2022-07-23T02:29:10;17.60;99.90
12568;DHT22;6349;50.904;6.136;2022-07-23T02:31:11;17.70;99.90
12568;DHT22;6349;50.904;6.136;2022-07-23T02:33:11;17.80;99.90
12568;DHT22;6349;50.904;6.136;2022-07-23T02:35:12;17.70;99.90
12568;DHT22;6349;50.904;6.136;2022-07-23T02:37:13;17.80;99.90
12568;DHT22;6349;50.904;6.136;2022-07-23T02:39:14;17.90;99.90
12568;DHT22;6349;50.904;6.136;2022-07-23T02:41:14;17.90;99.90
12568;DHT22;6349;50.904;6.136;2022-07-23T02:43:15;18.00;99.90
12568;DHT22;6349;50.904;6.136;2022-07-23T02:45:15;18.00;99.90
12568;DHT22;6349;50.904;6.136;2022-07-23T02:47:16;18.00;99.90
12568;DHT22;6349;50.904;6.136;2022-07-23T02:49:17;18.00;99.90
12568;DHT22;6349;50.904;6.136;2022-07-23T02:51:17;18.00;99.90
12568;DHT22;6349;50.904;6.136;2022-07-23T02:53:18;17.90;99.90
12568;DHT22;6349;50.904;6.136;2022-07-23T02:55:18;17.80;99.90
12568;DHT22;6349;50.904;6.136;2022-07-23T02:57:19;17.90;99.90
12568;DHT22;6349;50.904;6.136;2022-07-23T02:59:20;17.80;99.90
12568;DHT22;6349;50.904;6.136;2022-07-23T03:01:20;17.80;99.90
12568;DHT22;6349;50.904;6.136;2022-07-23T03:03:21;17.80;99.90
12568;DHT22;6349;50.904;6.136;2022-07-23T03:05:21;17.80;99.90
12568;DHT22;6349;50.904;6.136;2022-07-23T03:07:22;17.80;99.90
12568;DHT22;6349;50.904;6.136;2022-07-23T03:09:23;17.80;99.90
12568;DHT22;6349;50.904;6.136;2022-07-23T03:11:23;17.80;99.90
12568;DHT22;6349;50.904;6.136;2022-07-23T03:13:24;17.80;99.90
12568;DHT22;6349;50.904;6.136;2022-07-23T03:15:25;17.80;99.90
12568;DHT22;6349;50.904;6.136;2022-07-23T03:17:25;17.70;99.90
12568;DHT22;6349;50.904;6.136;2022-07-23T03:19:26;17.70;99.90
12568;DHT22;6349;50.904;6.136;2022-07-23T03:21:27;17.60;99.90
12568;DHT22;6349;50.904;6.136;2022-07-23T03:23:27;17.60;99.90
12568;DHT22;6349;50.904;6.136;2022-07-23T03:25:28;17.60;99.90
12568;DHT22;6349;50.904;6.136;2022-07-23T03:27:30;17.50;99.90
12568;DHT22;6349;50.904;6.136;2022-07-23T03:29:30;17.50;99.90
12568;DHT22;6349;50.904;6.136;2022-07-23T03:31:33;17.50;99.90
12568;DHT22;6349;50.904;6.136;2022-07-23T03:33:34;17.50;99.90
12568;DHT22;6349;50.904;6.136;2022-07-23T03:35:35;17.50;99.90
12568;DHT22;6349;50.904;6.136;2022-07-23T03:37:35;17.50;99.90
12568;DHT22;6349;50.904;6.136;2022-07-23T03:39:36;17.50;99.90
12568;DHT22;6349;50.904;6.136;2022-07-23T03:41:37;17.50;99.90
12568;DHT22;6349;50.904;6.136;2022-07-23T03:43:37;17.50;99.90
12568;DHT22;6349;50.904;6.136;2022-07-23T03:45:38;17.40;99.90
12568;DHT22;6349;50.904;6.136;2022-07-23T03:47:38;17.50;99.90
12568;DHT22;6349;50.904;6.136;2022-07-23T03:49:40;17.50;99.90
12568;DHT22;6349;50.904;6.136;2022-07-23T03:51:41;17.50;99.90
12568;DHT22;6349;50.904;6.136;2022-07-23T03:53:41;17.40;99.90
12568;DHT22;6349;50.904;6.136;2022-07-23T03:55:42;17.40;99.90
12568;DHT22;6349;50.904;6.136;2022-07-23T03:57:43;17.40;99.90
12568;DHT22;6349;50.904;6.136;2022-07-23T03:59:43;17.40;99.90
12568;DHT22;6349;50.904;6.136;2022-07-23T04:01:44;17.40;99.90
12568;DHT22;6349;50.904;6.136;2022-07-23T04:03:44;17.40;99.90
12568;DHT22;6349;50.904;6.136;2022-07-23T04:05:46;17.40;99.90
12568;DHT22;6349;50.904;6.136;2022-07-23T04:07:47;17.40;99.90
12568;DHT22;6349;50.904;6.136;2022-07-23T04:09:48;17.30;99.90
12568;DHT22;6349;50.904;6.136;2022-07-23T04:11:48;17.40;99.90
12568;DHT22;6349;50.904;6.136;2022-07-23T04:13:49;17.30;99.90
12568;DHT22;6349;50.904;6.136;2022-07-23T04:15:50;17.30;99.90
12568;DHT22;6349;50.904;6.136;2022-07-23T04:17:51;17.40;99.90
12568;DHT22;6349;50.904;6.136;2022-07-23T04:19:51;17.30;99.90
12568;DHT22;6349;50.904;6.136;2022-07-23T04:21:52;17.30;99.90
12568;DHT22;6349;50.904;6.136;2022-07-23T04:23:52;17.30;99.90
12568;DHT22;6349;50.904;6.136;2022-07-23T04:25:53;17.30;99.90
12568;DHT22;6349;50.904;6.136;2022-07-23T04:27:54;17.30;99.90
12568;DHT22;6349;50.904;6.136;2022-07-23T04:29:54;17.30;99.90
12568;DHT22;6349;50.904;6.136;2022-07-23T04:31:55;17.20;99.90
12568;DHT22;6349;50.904;6.136;2022-07-23T04:33:56;17.30;99.90
12568;DHT22;6349;50.904;6.136;2022-07-23T04:35:56;17.20;99.90
12568;DHT22;6349;50.904;6.136;2022-07-23T04:37:57;17.20;99.90
12568;DHT22;6349;50.904;6.136;2022-07-23T04:39:57;17.10;99.90
12568;DHT22;6349;50.904;6.136;2022-07-23T04:41:58;17.20;99.90
12568;DHT22;6349;50.904;6.136;2022-07-23T04:43:59;17.20;99.90
12568;DHT22;6349;50.904;6.136;2022-07-23T04:46:00;17.20;99.90
12568;DHT22;6349;50.904;6.136;2022-07-23T04:48:00;17.20;99.90
12568;DHT22;6349;50.904;6.136;2022-07-23T04:50:01;17.30;99.90
12568;DHT22;6349;50.904;6.136;2022-07-23T04:52:02;17.20;99.90
12568;DHT22;6349;50.904;6.136;2022-07-23T04:54:03;17.20;99.90
12568;DHT22;6349;50.904;6.136;2022-07-23T04:56:04;17.20;99.90
12568;DHT22;6349;50.904;6.136;2022-07-23T04:58:05;17.20;99.90
12568;DHT22;6349;50.904;6.136;2022-07-23T05:00:06;17.30;99.90
12568;DHT22;6349;50.904;6.136;2022-07-23T05:02:07;17.30;99.90
12568;DHT22;6349;50.904;6.136;2022-07-23T05:04:08;17.30;99.90
12568;DHT22;6349;50.904;6.136;2022-07-23T05:06:08;17.30;99.90
12568;DHT22;6349;50.904;6.136;2022-07-23T05:08:09;17.30;99.90
12568;DHT22;6349;50.904;6.136;2022-07-23T05:10:10;17.30;99.90
12568;DHT22;6349;50.904;6.136;2022-07-23T05:12:10;17.30;99.90
12568;DHT22;6349;50.904;6.136;2022-07-23T05:14:11;17.30;99.90
12568;DHT22;6349;50.904;6.136;2022-07-23T05:16:12;17.30;99.90
12568;DHT22;6349;50.904;6.136;2022-07-23T05:18:13;17.30;99.90
12568;DHT22;6349;50.904;6.136;2022-07-23T05:20:14;17.40;99.90
12568;DHT22;6349;50.904;6.136;2022-07-23T05:22:14;17.40;99.90
12568;DHT22;6349;50.904;6.136;2022-07-23T05:24:16;17.40;99.90
12568;DHT22;6349;50.904;6.136;2022-07-23T05:26:16;17.40;99.90
12568;DHT22;6349;50.904;6.136;2022-07-23T05:28:17;17.40;99.90
12568;DHT22;6349;50.904;6.136;2022-07-23T05:30:17;17.40;99.90
12568;DHT22;6349;50.904;6.136;2022-07-23T05:32:18;17.40;99.90
12568;DHT22;6349;50.904;6.136;2022-07-23T05:34:19;17.40;99.90
12568;DHT22;6349;50.904;6.136;2022-07-23T05:36:19;17.40;99.90
12568;DHT22;6349;50.904;6.136;2022-07-23T05:38:20;17.40;99.90
12568;DHT22;6349;50.904;6.136;2022-07-23T05:40:20;17.40;99.90
12568;DHT22;6349;50.904;6.136;2022-07-23T05:42:21;17.40;99.90
12568;DHT22;6349;50.904;6.136;2022-07-23T05:44:22;17.40;99.90
12568;DHT22;6349;50.904;6.136;2022-07-23T05:46:22;17.40;99.90
12568;DHT22;6349;50.904;6.136;2022-07-23T05:48:23;17.40;99.90
12568;DHT22;6349;50.904;6.136;2022-07-23T05:50:23;17.40;99.90
12568;DHT22;6349;50.904;6.136;2022-07-23T05:52:24;17.40;99.90
12568;DHT22;6349;50.904;6.136;2022-07-23T05:54:24;17.40;99.90
12568;DHT22;6349;50.904;6.136;2022-07-23T05:56:25;17.40;99.90
12568;DHT22;6349;50.904;6.136;2022-07-23T05:58:26;17.40;99.90
12568;DHT22;6349;50.904;6.136;2022-07-23T06:00:27;17.40;99.90
12568;DHT22;6349;50.904;6.136;2022-07-23T06:02:27;17.40;99.90
12568;DHT22;6349;50.904;6.136;2022-07-23T06:04:28;17.40;99.90
12568;DHT22;6349;50.904;6.136;2022-07-23T06:06:29;17.50;99.90
12568;DHT22;6349;50.904;6.136;2022-07-23T06:08:29;17.50;99.90
12568;DHT22;6349;50.904;6.136;2022-07-23T06:10:30;17.50;99.90
12568;DHT22;6349;50.904;6.136;2022-07-23T06:12:31;17.50;99.90
12568;DHT22;6349;50.904;6.136;2022-07-23T06:14:31;17.50;99.90
12568;DHT22;6349;50.904;6.136;2022-07-23T06:16:32;17.60;99.90
12568;DHT22;6349;50.904;6.136;2022-07-23T06:18:33;17.60;99.90
12568;DHT22;6349;50.904;6.136;2022-07-23T06:20:33;17.50;99.90
12568;DHT22;6349;50.904;6.136;2022-07-23T06:22:35;17.60;99.90
12568;DHT22;6349;50.904;6.136;2022-07-23T06:24:36;17.60;99.90
12568;DHT22;6349;50.904;6.136;2022-07-23T06:26:36;17.70;99.90
12568;DHT22;6349;50.904;6.136;2022-07-23T06:28:37;17.70;99.90
12568;DHT22;6349;50.904;6.136;2022-07-23T06:30:37;17.80;99.90
12568;DHT22;6349;50.904;6.136;2022-07-23T06:32:38;17.80;99.90
12568;DHT22;6349;50.904;6.136;2022-07-23T06:34:39;17.80;99.90
12568;DHT22;6349;50.904;6.136;2022-07-23T06:36:39;17.80;99.90
12568;DHT22;6349;50.904;6.136;2022-07-23T06:38:40;17.90;99.90
12568;DHT22;6349;50.904;6.136;2022-07-23T06:40:41;17.90;99.90
12568;DHT22;6349;50.904;6.136;2022-07-23T06:42:41;17.90;99.90
12568;DHT22;6349;50.904;6.136;2022-07-23T06:44:42;17.90;99.90
12568;DHT22;6349;50.904;6.136;2022-07-23T06:46:42;17.90;99.90
12568;DHT22;6349;50.904;6.136;2022-07-23T06:48:43;18.00;99.90
12568;DHT22;6349;50.904;6.136;2022-07-23T06:50:44;18.10;99.90
12568;DHT22;6349;50.904;6.136;2022-07-23T06:52:44;18.00;99.90
12568;DHT22;6349;50.904;6.136;2022-07-23T06:54:45;18.00;99.90
12568;DHT22;6349;50.904;6.136;2022-07-23T06:56:45;18.00;99.90
12568;DHT22;6349;50.904;6.136;2022-07-23T06:58:46;18.00;99.90
12568;DHT22;6349;50.904;6.136;2022-07-23T07:00:47;18.10;99.90
12568;DHT22;6349;50.904;6.136;2022-07-23T07:02:47;18.10;99.90
12568;DHT22;6349;50.904;6.136;2022-07-23T07:04:49;18.20;99.90
12568;DHT22;6349;50.904;6.136;2022-07-23T07:06:49;18.20;99.90
12568;DHT22;6349;50.904;6.136;2022-07-23T07:08:50;18.30;99.90
12568;DHT22;6349;50.904;6.136;2022-07-23T07:10:50;18.30;99.90
12568;DHT22;6349;50.904;6.136;2022-07-23T07:12:51;18.40;99.90
12568;DHT22;6349;50.904;6.136;2022-07-23T07:14:52;18.40;99.90
12568;DHT22;6349;50.904;6.136;2022-07-23T07:16:53;18.40;99.90
12568;DHT22;6349;50.904;6.136;2022-07-23T07:18:54;18.40;99.90
12568;DHT22;6349;50.904;6.136;2022-07-23T07:20:55;18.40;99.90
12568;DHT22;6349;50.904;6.136;2022-07-23T07:22:56;18.50;99.90
12568;DHT22;6349;50.904;6.136;2022-07-23T07:24:57;18.50;99.90
12568;DHT22;6349;50.904;6.136;2022-07-23T07:26:58;18.50;99.90
12568;DHT22;6349;50.904;6.136;2022-07-23T07:28:59;18.50;99.90
12568;DHT22;6349;50.904;6.136;2022-07-23T07:30:59;18.60;99.90
12568;DHT22;6349;50.904;6.136;2022-07-23T07:33:00;18.60;99.90
12568;DHT22;6349;50.904;6.136;2022-07-23T07:35:00;18.60;99.90
12568;DHT22;6349;50.904;6.136;2022-07-23T07:37:01;18.60;99.90
12568;DHT22;6349;50.904;6.136;2022-07-23T07:39:02;18.70;99.90
12568;DHT22;6349;50.904;6.136;2022-07-23T07:41:02;18.70;99.90
12568;DHT22;6349;50.904;6.136;2022-07-23T07:43:03;18.80;99.90
12568;DHT22;6349;50.904;6.136;2022-07-23T07:45:04;18.80;99.90
12568;DHT22;6349;50.904;6.136;2022-07-23T07:47:05;18.80;99.90
12568;DHT22;6349;50.904;6.136;2022-07-23T07:49:05;18.80;99.90
12568;DHT22;6349;50.904;6.136;2022-07-23T07:51:06;18.80;99.90
12568;DHT22;6349;50.904;6.136;2022-07-23T07:53:07;18.90;99.90
12568;DHT22;6349;50.904;6.136;2022-07-23T07:55:09;18.90;99.90
12568;DHT22;6349;50.904;6.136;2022-07-23T07:57:09;18.90;99.90
12568;DHT22;6349;50.904;6.136;2022-07-23T07:59:10;19.00;99.90
12568;DHT22;6349;50.904;6.136;2022-07-23T08:01:11;19.00;99.90
12568;DHT22;6349;50.904;6.136;2022-07-23T08:03:12;19.00;99.90
12568;DHT22;6349;50.904;6.136;2022-07-23T08:05:14;19.00;99.90
12568;DHT22;6349;50.904;6.136;2022-07-23T08:07:15;19.10;99.90
12568;DHT22;6349;50.904;6.136;2022-07-23T08:09:15;19.10;99.90
12568;DHT22;6349;50.904;6.136;2022-07-23T08:11:16;19.10;99.90
12568;DHT22;6349;50.904;6.136;2022-07-23T08:13:17;19.20;99.90
12568;DHT22;6349;50.904;6.136;2022-07-23T08:15:19;19.20;99.90
12568;DHT22;6349;50.904;6.136;2022-07-23T08:17:20;19.20;99.90
12568;DHT22;6349;50.904;6.136;2022-07-23T08:19:20;19.30;99.90
12568;DHT22;6349;50.904;6.136;2022-07-23T08:21:21;19.30;99.90
12568;DHT22;6349;50.904;6.136;2022-07-23T08:23:22;19.40;99.90
12568;DHT22;6349;50.904;6.136;2022-07-23T08:25:27;19.40;99.90
12568;DHT22;6349;50.904;6.136;2022-07-23T08:27:28;19.40;99.90
12568;DHT22;6349;50.904;6.136;2022-07-23T08:29:29;19.40;99.90
12568;DHT22;6349;50.904;6.136;2022-07-23T08:31:29;19.40;99.90
12568;DHT22;6349;50.904;6.136;2022-07-23T08:33:30;19.50;99.90
12568;DHT22;6349;50.904;6.136;2022-07-23T08:35:34;19.50;99.90
12568;DHT22;6349;50.904;6.136;2022-07-23T08:37:35;19.50;99.90
12568;DHT22;6349;50.904;6.136;2022-07-23T08:39:35;19.60;99.90
12568;DHT22;6349;50.904;6.136;2022-07-23T08:41:39;19.60;99.90
12568;DHT22;6349;50.904;6.136;2022-07-23T08:43:40;19.70;99.90
12568;DHT22;6349;50.904;6.136;2022-07-23T08:45:43;19.80;99.90
12568;DHT22;6349;50.904;6.136;2022-07-23T08:47:44;19.90;99.90
12568;DHT22;6349;50.904;6.136;2022-07-23T08:49:46;20.00;99.90
12568;DHT22;6349;50.904;6.136;2022-07-23T08:51:47;20.00;99.90
12568;DHT22;6349;50.904;6.136;2022-07-23T08:53:48;20.10;99.90
12568;DHT22;6349;50.904;6.136;2022-07-23T08:55:54;20.00;99.90
12568;DHT22;6349;50.904;6.136;2022-07-23T08:57:55;20.00;99.90
12568;DHT22;6349;50.904;6.136;2022-07-23T08:59:56;19.90;99.90
12568;DHT22;6349;50.904;6.136;2022-07-23T09:01:57;19.90;99.90
12568;DHT22;6349;50.904;6.136;2022-07-23T09:03:57;19.90;99.90
12568;DHT22;6349;50.904;6.136;2022-07-23T09:05:59;19.90;99.90
12568;DHT22;6349;50.904;6.136;2022-07-23T09:08:53;19.90;99.90
12568;DHT22;6349;50.904;6.136;2022-07-23T09:12:51;20.00;99.90
12568;DHT22;6349;50.904;6.136;2022-07-23T09:14:51;20.00;99.90
12568;DHT22;6349;50.904;6.136;2022-07-23T09:16:52;20.10;99.90
12568;DHT22;6349;50.904;6.136;2022-07-23T09:18:58;20.20;99.90
12568;DHT22;6349;50.904;6.136;2022-07-23T09:21:20;20.20;99.90
12568;DHT22;6349;50.904;6.136;2022-07-23T09:23:37;20.20;99.90
12568;DHT22;6349;50.904;6.136;2022-07-23T09:25:38;20.20;99.90
12568;DHT22;6349;50.904;6.136;2022-07-23T09:29:56;20.30;99.90
12568;DHT22;6349;50.904;6.136;2022-07-23T09:31:59;20.30;99.90
12568;DHT22;6349;50.904;6.136;2022-07-23T09:34:08;20.40;99.90
12568;DHT22;6349;50.904;6.136;2022-07-23T09:36:08;20.40;99.90
12568;DHT22;6349;50.904;6.136;2022-07-23T09:38:09;20.40;99.90
12568;DHT22;6349;50.904;6.136;2022-07-23T09:40:10;20.40;99.90
12568;DHT22;6349;50.904;6.136;2022-07-23T09:42:23;20.40;99.90
12568;DHT22;6349;50.904;6.136;2022-07-23T09:44:24;20.50;99.90
12568;DHT22;6349;50.904;6.136;2022-07-23T09:46:26;20.60;99.90
12568;DHT22;6349;50.904;6.136;2022-07-23T09:48:27;20.60;99.90
12568;DHT22;6349;50.904;6.136;2022-07-23T09:50:28;20.70;99.90
12568;DHT22;6349;50.904;6.136;2022-07-23T09:52:30;20.70;99.90
12568;DHT22;6349;50.904;6.136;2022-07-23T09:54:39;20.80;99.90
12568;DHT22;6349;50.904;6.136;2022-07-23T09:56:41;20.90;99.90
12568;DHT22;6349;50.904;6.136;2022-07-23T09:58:44;21.00;99.90
12568;DHT22;6349;50.904;6.136;2022-07-23T10:00:50;21.10;99.90
12568;DHT22;6349;50.904;6.136;2022-07-23T10:02:51;21.20;99.90
12568;DHT22;6349;50.904;6.136;2022-07-23T10:04:53;21.20;99.90
12568;DHT22;6349;50.904;6.136;2022-07-23T10:06:58;21.30;99.90
12568;DHT22;6349;50.904;6.136;2022-07-23T10:08:59;21.30;99.90
12568;DHT22;6349;50.904;6.136;2022-07-23T10:11:01;21.30;99.90
12568;DHT22;6349;50.904;6.136;2022-07-23T10:13:04;21.30;99.90
12568;DHT22;6349;50.904;6.136;2022-07-23T10:15:17;21.40;99.90
12568;DHT22;6349;50.904;6.136;2022-07-23T10:17:18;21.40;99.90
12568;DHT22;6349;50.904;6.136;2022-07-23T10:19:19;21.40;99.90
12568;DHT22;6349;50.904;6.136;2022-07-23T10:24:04;21.60;99.90
12568;DHT22;6349;50.904;6.136;2022-07-23T10:26:35;21.60;99.90
12568;DHT22;6349;50.904;6.136;2022-07-23T10:31:20;21.70;99.90
12568;DHT22;6349;50.904;6.136;2022-07-23T10:38:31;21.90;99.90
12568;DHT22;6349;50.904;6.136;2022-07-23T10:40:33;22.00;99.90
12568;DHT22;6349;50.904;6.136;2022-07-23T10:42:35;22.00;99.90
12568;DHT22;6349;50.904;6.136;2022-07-23T10:44:41;22.00;99.90
12568;DHT22;6349;50.904;6.136;2022-07-23T10:47:00;22.10;99.90
12568;DHT22;6349;50.904;6.136;2022-07-23T10:49:27;22.20;99.90
12568;DHT22;6349;50.904;6.136;2022-07-23T10:51:28;22.30;99.90
12568;DHT22;6349;50.904;6.136;2022-07-23T10:55:51;22.40;99.90
12568;DHT22;6349;50.904;6.136;2022-07-23T10:57:52;22.40;99.90
12568;DHT22;6349;50.904;6.136;2022-07-23T11:02:21;22.50;99.90
12568;DHT22;6349;50.904;6.136;2022-07-23T11:04:52;22.60;99.90
12568;DHT22;6349;50.904;6.136;2022-07-23T11:09:28;22.70;99.90
12568;DHT22;6349;50.904;6.136;2022-07-23T11:11:28;22.70;99.90
12568;DHT22;6349;50.904;6.136;2022-07-23T11:13:32;22.80;99.90
12568;DHT22;6349;50.904;6.136;2022-07-23T11:18:03;23.00;99.90
12568;DHT22;6349;50.904;6.136;2022-07-23T11:22:40;23.10;99.90
12568;DHT22;6349;50.904;6.136;2022-07-23T11:24:50;23.20;99.90
12568;DHT22;6349;50.904;6.136;2022-07-23T11:26:59;23.20;99.90
12568;DHT22;6349;50.904;6.136;2022-07-23T11:31:26;23.30;99.90
12568;DHT22;6349;50.904;6.136;2022-07-23T11:33:27;23.20;99.90
12568;DHT22;6349;50.904;6.136;2022-07-23T11:35:28;23.20;99.90
12568;DHT22;6349;50.904;6.136;2022-07-23T11:37:39;23.30;99.90
12568;DHT22;6349;50.904;6.136;2022-07-23T11:39:40;23.30;99.90
12568;DHT22;6349;50.904;6.136;2022-07-23T11:41:44;23.40;99.90
12568;DHT22;6349;50.904;6.136;2022-07-23T11:43:45;23.40;99.90
12568;DHT22;6349;50.904;6.136;2022-07-23T11:45:47;23.50;99.90
12568;DHT22;6349;50.904;6.136;2022-07-23T11:47:48;23.60;99.90
12568;DHT22;6349;50.904;6.136;2022-07-23T11:49:59;23.60;99.90
12568;DHT22;6349;50.904;6.136;2022-07-23T11:52:08;23.70;99.90
12568;DHT22;6349;50.904;6.136;2022-07-23T11:54:09;23.80;99.90
12568;DHT22;6349;50.904;6.136;2022-07-23T11:56:11;23.90;99.90
12568;DHT22;6349;50.904;6.136;2022-07-23T11:58:11;24.00;99.90
12568;DHT22;6349;50.904;6.136;2022-07-23T12:00:15;24.00;99.90
12568;DHT22;6349;50.904;6.136;2022-07-23T12:02:16;24.10;99.90
12568;DHT22;6349;50.904;6.136;2022-07-23T12:04:16;24.10;99.90
12568;DHT22;6349;50.904;6.136;2022-07-23T12:06:17;24.30;99.90
12568;DHT22;6349;50.904;6.136;2022-07-23T12:08:18;24.30;99.90
12568;DHT22;6349;50.904;6.136;2022-07-23T12:10:30;24.40;99.90
12568;DHT22;6349;50.904;6.136;2022-07-23T12:13:04;24.40;99.90
12568;DHT22;6349;50.904;6.136;2022-07-23T12:15:06;24.40;99.90
12568;DHT22;6349;50.904;6.136;2022-07-23T12:17:10;24.40;99.90
12568;DHT22;6349;50.904;6.136;2022-07-23T12:19:11;24.40;99.90
12568;DHT22;6349;50.904;6.136;2022-07-23T12:21:12;24.30;99.90
12568;DHT22;6349;50.904;6.136;2022-07-23T12:23:14;24.40;99.90
12568;DHT22;6349;50.904;6.136;2022-07-23T12:25:20;24.50;99.90
12568;DHT22;6349;50.904;6.136;2022-07-23T12:27:22;24.60;99.90
12568;DHT22;6349;50.904;6.136;2022-07-23T12:29:34;24.40;99.90
12568;DHT22;6349;50.904;6.136;2022-07-23T12:31:35;24.40;99.90
12568;DHT22;6349;50.904;6.136;2022-07-23T12:33:38;24.50;99.90
12568;DHT22;6349;50.904;6.136;2022-07-23T12:35:44;24.50;99.90
12568;DHT22;6349;50.904;6.136;2022-07-23T12:37:46;24.70;99.90
12568;DHT22;6349;50.904;6.136;2022-07-23T12:39:47;24.80;99.90
12568;DHT22;6349;50.904;6.136;2022-07-23T12:41:52;24.90;99.90
12568;DHT22;6349;50.904;6.136;2022-07-23T12:43:53;24.80;99.90
12568;DHT22;6349;50.904;6.136;2022-07-23T12:48:05;25.00;99.90
12568;DHT22;6349;50.904;6.136;2022-07-23T12:52:35;25.10;99.90
12568;DHT22;6349;50.904;6.136;2022-07-23T12:54:36;25.20;99.90
12568;DHT22;6349;50.904;6.136;2022-07-23T12:56:38;25.20;99.90
12568;DHT22;6349;50.904;6.136;2022-07-23T12:59:06;25.20;99.90
12568;DHT22;6349;50.904;6.136;2022-07-23T13:01:07;25.30;99.90
12568;DHT22;6349;50.904;6.136;2022-07-23T13:03:21;25.20;99.90
12568;DHT22;6349;50.904;6.136;2022-07-23T13:05:21;25.30;99.90
12568;DHT22;6349;50.904;6.136;2022-07-23T13:07:22;25.40;99.90
12568;DHT22;6349;50.904;6.136;2022-07-23T13:09:26;25.40;99.90
12568;DHT22;6349;50.904;6.136;2022-07-23T13:11:26;25.50;99.90
12568;DHT22;6349;50.904;6.136;2022-07-23T13:13:29;25.50;99.90
12568;DHT22;6349;50.904;6.136;2022-07-23T13:15:30;25.60;99.90
12568;DHT22;6349;50.904;6.136;2022-07-23T13:17:31;25.80;99.90
12568;DHT22;6349;50.904;6.136;2022-07-23T13:19:32;25.80;99.90
12568;DHT22;6349;50.904;6.136;2022-07-23T13:21:33;25.70;99.90
12568;DHT22;6349;50.904;6.136;2022-07-23T13:23:34;25.70;99.90
12568;DHT22;6349;50.904;6.136;2022-07-23T13:25:34;25.70;99.90
12568;DHT22;6349;50.904;6.136;2022-07-23T13:27:35;25.60;99.90
12568;DHT22;6349;50.904;6.136;2022-07-23T13:29:36;25.70;99.90
12568;DHT22;6349;50.904;6.136;2022-07-23T13:31:37;25.80;99.90
12568;DHT22;6349;50.904;6.136;2022-07-23T13:33:38;25.80;99.90
12568;DHT22;6349;50.904;6.136;2022-07-23T13:35:39;25.70;99.90
12568;DHT22;6349;50.904;6.136;2022-07-23T13:37:39;25.80;99.90